createdAt,value
2018-05-12T00:00:43.170Z,32.17
2018-05-12T00:03:11.519Z,32.53
2018-05-12T00:05:39.870Z,33.13
2018-05-12T00:08:08.209Z,33.10
2018-05-12T00:10:36.567Z,32.60
2018-05-12T00:13:04.994Z,32.50
2018-05-12T00:15:33.337Z,29.90
2018-05-12T00:18:01.691Z,34.47
2018-05-12T00:20:30.017Z,29.20
2018-05-12T00:22:58.359Z,34.23
2018-05-12T00:25:26.695Z,31.60
2018-05-12T00:27:55.022Z,32.90
2018-05-12T00:30:23.411Z,31.57
2018-05-12T00:32:51.812Z,32.77
2018-05-12T00:35:20.232Z,34.83
2018-05-12T00:37:48.562Z,35.00
2018-05-12T00:40:16.919Z,40.63
2018-05-12T00:42:45.268Z,35.17
2018-05-12T00:45:13.622Z,41.80
2018-05-12T00:47:41.998Z,38.27
2018-05-12T00:50:10.351Z,38.27
2018-05-12T00:52:39.360Z,34.77
2018-05-12T00:55:07.765Z,37.60
2018-05-12T00:57:36.150Z,39.17
2018-05-12T01:00:04.486Z,38.03
2018-05-12T01:02:34.125Z,40.57
2018-05-12T01:05:02.445Z,40.33
2018-05-12T01:07:30.788Z,43.87
2018-05-12T01:09:59.379Z,40.20
2018-05-12T01:12:27.711Z,38.07
2018-05-12T01:14:56.040Z,40.60
2018-05-12T01:17:24.408Z,38.73
2018-05-12T01:19:52.741Z,37.67
2018-05-12T01:22:21.206Z,39.70
2018-05-12T01:24:49.615Z,36.80
2018-05-12T01:27:18.006Z,37.67
2018-05-12T01:29:46.537Z,38.37
2018-05-12T01:32:15.796Z,36.90
2018-05-12T01:34:44.149Z,39.23
2018-05-12T01:37:12.850Z,40.97
2018-05-12T01:39:41.183Z,37.30
2018-05-12T01:42:09.574Z,41.30
2018-05-12T01:44:38.787Z,38.20
2018-05-12T01:47:07.116Z,37.97
2018-05-12T01:49:35.461Z,41.70
2018-05-12T01:52:03.853Z,40.57
2018-05-12T01:54:32.255Z,38.37
2018-05-12T01:57:00.633Z,38.67
2018-05-12T01:59:29.027Z,39.20
2018-05-12T02:01:57.434Z,38.37
2018-05-12T02:04:25.774Z,39.63
2018-05-12T02:06:54.109Z,38.67
2018-05-12T02:09:22.477Z,40.37
2018-05-12T02:11:51.870Z,36.93
2018-05-12T02:14:20.222Z,43.60
2018-05-12T02:16:50.450Z,38.97
2018-05-12T02:19:18.846Z,41.53
2018-05-12T02:21:47.230Z,41.37
2018-05-12T02:24:15.588Z,41.43
2018-05-12T02:26:43.985Z,40.47
2018-05-12T02:29:12.325Z,41.50
2018-05-12T02:31:40.657Z,42.33
2018-05-12T02:34:09.001Z,44.13
2018-05-12T02:36:37.375Z,43.53
2018-05-12T02:39:05.754Z,40.77
2018-05-12T02:41:34.101Z,41.97
2018-05-12T02:44:02.484Z,42.67
2018-05-12T02:46:30.833Z,45.50
2018-05-12T02:48:59.173Z,43.80
2018-05-12T02:51:29.352Z,51.17
2018-05-12T02:53:57.668Z,42.43
2018-05-12T02:56:26.021Z,45.27
2018-05-12T02:58:54.341Z,46.87
2018-05-12T03:01:22.706Z,44.10
2018-05-12T03:03:51.037Z,47.97
2018-05-12T03:06:19.387Z,48.77
2018-05-12T03:08:47.742Z,50.43
2018-05-12T03:11:16.124Z,54.67
2018-05-12T03:13:44.541Z,57.00
2018-05-12T03:16:12.890Z,50.30
2018-05-12T03:18:41.282Z,57.20
2018-05-12T03:21:09.634Z,54.30
2018-05-12T03:23:37.972Z,49.67
2018-05-12T03:26:06.294Z,53.90
2018-05-12T03:28:34.641Z,53.67
2018-05-12T03:31:04.419Z,50.33
2018-05-12T03:33:32.875Z,49.97
2018-05-12T03:36:01.227Z,53.10
2018-05-12T03:38:33.867Z,50.03
2018-05-12T03:41:02.197Z,52.57
2018-05-12T03:43:30.534Z,49.10
2018-05-12T03:45:58.893Z,52.10
2018-05-12T03:48:28.161Z,50.87
2018-05-12T03:50:56.532Z,47.30
2018-05-12T03:53:24.890Z,50.07
2018-05-12T03:55:53.338Z,50.03
2018-05-12T03:58:21.712Z,50.27
2018-05-12T04:00:50.052Z,47.50
2018-05-12T04:03:18.412Z,46.17
2018-05-12T04:05:58.660Z,47.23
2018-05-12T04:08:38.999Z,47.63
2018-05-12T04:11:19.409Z,50.17
2018-05-12T04:13:47.856Z,43.40
2018-05-12T04:16:16.242Z,45.83
2018-05-12T04:18:44.596Z,50.73
2018-05-12T04:21:12.960Z,46.63
2018-05-12T04:23:41.378Z,45.47
2018-05-12T04:26:09.810Z,44.47
2018-05-12T04:28:38.098Z,43.63
2018-05-12T04:31:06.436Z,43.83
2018-05-12T04:33:34.758Z,44.23
2018-05-12T04:36:03.129Z,42.67
2018-05-12T04:38:31.661Z,45.47
2018-05-12T04:41:00.004Z,42.33
2018-05-12T04:43:28.348Z,44.67
2018-05-12T04:45:56.689Z,47.03
2018-05-12T04:48:25.093Z,45.63
2018-05-12T04:50:53.448Z,43.13
2018-05-12T04:53:21.883Z,46.70
2018-05-12T04:55:50.221Z,47.93
2018-05-12T04:58:18.576Z,44.97
2018-05-12T05:00:46.932Z,45.57
2018-05-12T05:03:15.369Z,47.17
2018-05-12T05:05:43.711Z,45.80
2018-05-12T05:08:12.226Z,41.13
2018-05-12T05:10:41.588Z,41.17
2018-05-12T05:13:09.914Z,40.00
2018-05-12T05:15:38.447Z,40.07
2018-05-12T05:18:06.793Z,40.10
2018-05-12T05:20:35.201Z,39.93
2018-05-12T05:23:03.546Z,40.27
2018-05-12T05:25:31.882Z,39.60
2018-05-12T05:28:00.292Z,43.30
2018-05-12T05:30:28.638Z,40.90
2018-05-12T05:32:56.988Z,42.63
2018-05-12T05:35:25.332Z,41.87
2018-05-12T05:37:53.663Z,44.43
2018-05-12T05:40:22.042Z,42.80
2018-05-12T05:42:50.388Z,43.63
2018-05-12T05:45:18.834Z,42.17
2018-05-12T05:47:47.186Z,39.73
2018-05-12T05:50:15.611Z,45.90
2018-05-12T05:52:43.898Z,37.23
2018-05-12T05:55:12.256Z,44.50
2018-05-12T05:57:41.526Z,40.60
2018-05-12T06:00:09.889Z,40.00
2018-05-12T06:02:38.218Z,38.63
2018-05-12T06:05:06.574Z,41.00
2018-05-12T06:07:34.973Z,41.77
2018-05-12T06:10:03.370Z,46.87
2018-05-12T06:12:31.711Z,40.70
2018-05-12T06:15:00.141Z,40.33
2018-05-12T06:17:28.563Z,37.80
2018-05-12T06:19:56.907Z,40.17
2018-05-12T06:22:25.260Z,39.93
2018-05-12T06:24:53.595Z,40.40
2018-05-12T06:27:22.026Z,41.43
2018-05-12T06:29:50.523Z,40.13
2018-05-12T06:32:18.846Z,42.30
2018-05-12T06:34:47.580Z,38.77
2018-05-12T06:37:15.915Z,40.37
2018-05-12T06:39:44.264Z,39.97
2018-05-12T06:42:12.719Z,37.67
2018-05-12T06:44:41.200Z,38.20
2018-05-12T06:47:09.549Z,40.43
2018-05-12T06:49:37.948Z,36.67
2018-05-12T06:52:06.299Z,34.13
2018-05-12T06:54:34.681Z,38.17
2018-05-12T06:57:03.032Z,37.13
2018-05-12T06:59:31.371Z,35.63
2018-05-12T07:01:59.793Z,34.70
2018-05-12T07:04:28.225Z,34.00
2018-05-12T07:06:56.627Z,39.80
2018-05-12T07:09:25.508Z,34.50
2018-05-12T07:11:53.882Z,34.70
2018-05-12T07:14:22.279Z,37.13
2018-05-12T07:16:50.627Z,37.40
2018-05-12T07:19:19.005Z,35.80
2018-05-12T07:21:47.522Z,33.53
2018-05-12T07:24:15.868Z,37.10
2018-05-12T07:26:44.244Z,35.37
2018-05-12T07:29:16.509Z,34.87
2018-05-12T07:31:44.866Z,33.03
2018-05-12T07:34:14.405Z,30.27
2018-05-12T07:36:42.778Z,33.80
2018-05-12T07:39:11.131Z,33.73
2018-05-12T07:41:39.770Z,33.83
2018-05-12T07:44:08.150Z,29.70
2018-05-12T07:46:36.503Z,29.80
2018-05-12T07:49:04.878Z,30.80
2018-05-12T07:51:35.104Z,32.47
2018-05-12T07:54:03.404Z,29.70
2018-05-12T07:56:31.752Z,28.43
2018-05-12T07:59:00.158Z,33.23
2018-05-12T08:01:28.526Z,31.80
2018-05-12T08:03:56.880Z,30.03
2018-05-12T08:06:25.228Z,25.93
2018-05-12T08:08:53.683Z,35.10
2018-05-12T08:11:22.017Z,31.57
2018-05-12T08:13:50.343Z,28.73
2018-05-12T08:16:18.705Z,30.40
2018-05-12T08:18:47.098Z,27.87
2018-05-12T08:21:16.881Z,30.17
2018-05-12T08:23:45.225Z,26.45
2018-05-12T08:26:13.584Z,30.95
2018-05-12T08:28:41.932Z,30.45
2018-05-12T08:31:10.364Z,27.00
2018-05-12T08:33:38.808Z,27.45
2018-05-12T08:36:08.231Z,25.00
2018-05-12T08:38:36.573Z,25.55
2018-05-12T08:41:04.911Z,26.90
2018-05-12T08:43:33.252Z,30.55
2018-05-12T08:46:01.620Z,26.83
2018-05-12T08:48:29.966Z,26.62
2018-05-12T08:50:58.317Z,26.52
2018-05-12T08:53:26.654Z,26.42
2018-05-12T08:55:55.009Z,27.42
2018-05-12T08:58:23.405Z,25.92
2018-05-12T09:00:51.885Z,27.65
2018-05-12T09:03:20.229Z,25.50
2018-05-12T09:05:48.663Z,25.70
2018-05-12T09:08:17.012Z,25.75
2018-05-12T09:10:45.438Z,24.70
2018-05-12T09:13:13.779Z,27.85
2018-05-12T09:15:42.283Z,24.50
2018-05-12T09:18:10.643Z,26.20
2018-05-12T09:20:39.000Z,28.62
2018-05-12T09:23:07.356Z,26.85
2018-05-12T09:25:35.771Z,25.75
2018-05-12T09:28:04.106Z,24.15
2018-05-12T09:30:32.711Z,28.12
2018-05-12T09:33:01.064Z,28.23
2018-05-12T09:35:29.411Z,27.83
2018-05-12T09:37:57.769Z,25.75
2018-05-12T09:40:26.090Z,21.08
2018-05-12T09:42:54.447Z,26.73
2018-05-12T09:45:22.777Z,26.02
2018-05-12T09:47:51.211Z,27.23
2018-05-12T09:50:19.540Z,24.15
2018-05-12T09:52:47.905Z,25.02
2018-05-12T09:55:16.309Z,24.40
2018-05-12T09:57:44.683Z,23.83
2018-05-12T10:00:13.029Z,23.87
2018-05-12T10:02:41.363Z,23.27
2018-05-12T10:05:09.707Z,23.85
2018-05-12T10:07:38.067Z,23.45
2018-05-12T10:10:06.442Z,26.17
2018-05-12T10:12:34.779Z,21.67
2018-05-12T10:15:03.231Z,24.05
2018-05-12T10:17:31.561Z,21.25
2018-05-12T10:20:00.015Z,22.05
2018-05-12T10:22:28.389Z,23.00
2018-05-12T10:24:56.804Z,23.98
2018-05-12T10:27:25.149Z,23.87
2018-05-12T10:29:53.676Z,23.20
2018-05-12T10:32:23.053Z,22.83
2018-05-12T10:34:51.419Z,21.08
2018-05-12T10:37:19.765Z,20.83
2018-05-12T10:39:48.827Z,21.30
2018-05-12T10:42:17.177Z,21.00
2018-05-12T10:44:45.532Z,19.23
2018-05-12T10:47:13.959Z,19.33
2018-05-12T10:49:42.292Z,19.60
2018-05-12T10:52:10.638Z,18.58
2018-05-12T10:54:39.020Z,19.75
2018-05-12T10:57:07.370Z,17.27
2018-05-12T10:59:35.711Z,18.62
2018-05-12T11:02:04.132Z,18.00
2018-05-12T11:04:32.457Z,17.75
2018-05-12T11:07:00.801Z,19.08
2018-05-12T11:09:29.187Z,18.17
2018-05-12T11:11:57.546Z,16.67
2018-05-12T11:14:25.903Z,17.70
2018-05-12T11:16:54.266Z,16.73
2018-05-12T11:19:22.619Z,18.83
2018-05-12T11:21:51.041Z,15.48
2018-05-12T11:24:19.386Z,16.98
2018-05-12T11:26:47.730Z,15.07
2018-05-12T11:29:16.125Z,20.40
2018-05-12T11:31:44.521Z,19.60
2018-05-12T11:34:12.876Z,18.58
2018-05-12T11:36:41.309Z,16.95
2018-05-12T11:39:09.649Z,19.10
2018-05-12T11:41:38.130Z,18.05
2018-05-12T11:44:06.472Z,18.70
2018-05-12T11:46:34.885Z,19.17
2018-05-12T11:49:03.395Z,17.92
2018-05-12T11:51:36.687Z,17.08
2018-05-12T11:54:05.145Z,18.87
2018-05-12T11:56:33.389Z,17.92
2018-05-12T11:59:01.759Z,18.02
2018-05-12T12:01:30.188Z,17.62
2018-05-12T12:03:58.542Z,17.87
2018-05-12T12:06:26.967Z,16.90
2018-05-12T12:08:55.305Z,22.67
2018-05-12T12:11:23.705Z,15.75
2018-05-12T12:13:52.036Z,14.43
2018-05-12T12:16:21.885Z,16.27
2018-05-12T12:18:50.829Z,11.60
2018-05-12T12:21:19.174Z,11.50
2018-05-12T12:23:48.069Z,15.13
2018-05-12T12:26:16.409Z,13.77
2018-05-12T12:28:44.762Z,15.43
2018-05-12T12:31:13.117Z,16.92
2018-05-12T12:33:41.445Z,13.23
2018-05-12T12:36:09.796Z,14.50
2018-05-12T12:38:38.136Z,13.40
2018-05-12T12:41:06.498Z,14.18
2018-05-12T12:43:34.826Z,12.43
2018-05-12T12:46:03.173Z,9.57
2018-05-12T12:48:31.549Z,10.43
2018-05-12T12:50:59.944Z,7.75
2018-05-12T12:53:28.541Z,9.50
2018-05-12T12:55:56.929Z,10.60
2018-05-12T12:58:25.347Z,11.93
2018-05-12T13:00:53.686Z,10.23
2018-05-12T13:03:23.283Z,8.70
2018-05-12T13:05:51.634Z,10.75
2018-05-12T13:08:19.970Z,10.63
2018-05-12T13:10:48.455Z,12.48
2018-05-12T13:13:16.924Z,10.90
2018-05-12T13:15:45.243Z,11.07
2018-05-12T13:18:13.610Z,11.38
2018-05-12T13:20:43.535Z,11.57
2018-05-12T13:23:11.875Z,11.20
2018-05-12T13:25:40.309Z,12.30
2018-05-12T13:28:08.641Z,10.82
2018-05-12T13:30:36.979Z,12.52
2018-05-12T13:33:05.329Z,12.27
2018-05-12T13:35:33.709Z,12.20
2018-05-12T13:38:02.060Z,10.98
2018-05-12T13:40:30.410Z,12.23
2018-05-12T13:42:58.765Z,12.48
2018-05-12T13:45:27.221Z,11.20
2018-05-12T13:47:55.640Z,11.77
2018-05-12T13:50:24.013Z,14.18
2018-05-12T13:52:52.449Z,11.07
2018-05-12T13:55:20.795Z,9.77
2018-05-12T13:57:49.304Z,9.80
2018-05-12T14:00:17.607Z,9.35
2018-05-12T14:02:45.931Z,8.55
2018-05-12T14:05:14.260Z,9.18
2018-05-12T14:07:42.593Z,14.13
2018-05-12T14:10:10.913Z,9.07
2018-05-12T14:12:39.368Z,9.23
2018-05-12T14:15:07.693Z,12.35
2018-05-12T14:17:36.024Z,10.23
2018-05-12T14:20:05.027Z,9.77
2018-05-12T14:22:33.391Z,11.27
2018-05-12T14:25:01.735Z,10.93
2018-05-12T14:27:30.122Z,11.50
2018-05-12T14:29:58.620Z,9.88
2018-05-12T14:32:26.944Z,8.85
2018-05-12T14:34:55.293Z,11.15
2018-05-12T14:37:23.621Z,8.90
2018-05-12T14:39:51.988Z,9.63
2018-05-12T14:42:20.299Z,12.43
2018-05-12T14:44:48.662Z,10.20
2018-05-12T14:47:17.051Z,10.80
2018-05-12T14:49:46.171Z,11.10
2018-05-12T14:52:14.527Z,14.13
2018-05-12T14:54:42.934Z,14.15
2018-05-12T14:57:11.358Z,12.52
2018-05-12T14:59:39.830Z,11.65
2018-05-12T15:02:08.173Z,11.75
2018-05-12T15:04:36.778Z,11.65
2018-05-12T15:07:05.105Z,11.10
2018-05-12T15:09:33.441Z,11.57
2018-05-12T15:12:01.897Z,11.15
2018-05-12T15:14:30.270Z,10.82
2018-05-12T15:16:58.630Z,11.05
2018-05-12T15:19:27.023Z,10.85
2018-05-12T15:21:56.373Z,12.20
2018-05-12T15:24:25.283Z,11.35
2018-05-12T15:26:53.606Z,9.98
2018-05-12T15:29:21.974Z,10.60
2018-05-12T15:31:50.451Z,10.98
2018-05-12T15:34:18.773Z,11.10
2018-05-12T15:36:47.174Z,13.77
2018-05-12T15:39:15.556Z,13.88
2018-05-12T15:41:43.929Z,19.33
2018-05-12T15:44:12.366Z,12.68
2018-05-12T15:46:40.864Z,15.15
2018-05-12T15:49:09.233Z,12.90
2018-05-12T15:51:37.619Z,11.32
2018-05-12T15:54:05.973Z,11.60
2018-05-12T15:56:34.401Z,10.63
2018-05-12T15:59:02.743Z,10.70
2018-05-12T16:01:31.129Z,10.73
2018-05-12T16:03:59.451Z,11.63
2018-05-12T16:06:27.806Z,11.25
2018-05-12T16:08:56.146Z,11.07
2018-05-12T16:11:24.552Z,12.10
2018-05-12T16:13:52.959Z,11.50
2018-05-12T16:16:21.281Z,11.30
2018-05-12T16:18:49.625Z,29.63
2018-05-12T16:21:18.008Z,13.93
2018-05-12T16:23:46.327Z,9.97
2018-05-12T16:26:14.692Z,14.00
2018-05-12T16:28:43.098Z,14.33
2018-05-12T16:31:11.476Z,10.50
2018-05-12T16:33:41.116Z,9.27
2018-05-12T16:36:09.453Z,10.43
2018-05-12T16:38:37.789Z,10.57
2018-05-12T16:41:06.113Z,11.00
2018-05-12T16:43:34.542Z,11.50
2018-05-12T16:46:03.099Z,14.23
2018-05-12T16:48:31.849Z,12.07
2018-05-12T16:51:00.678Z,12.57
2018-05-12T16:53:29.305Z,14.37
2018-05-12T16:55:57.711Z,13.60
2018-05-12T16:58:28.183Z,14.17
2018-05-12T17:00:57.886Z,12.77
2018-05-12T17:03:28.965Z,12.27
2018-05-12T17:05:58.233Z,14.37
2018-05-12T17:08:30.795Z,13.70
2018-05-12T17:10:59.253Z,15.30
2018-05-12T17:13:29.384Z,15.90
2018-05-12T17:15:57.921Z,15.10
2018-05-12T17:18:26.502Z,15.40
2018-05-12T17:20:55.285Z,14.90
2018-05-12T17:23:24.123Z,16.67
2018-05-12T17:25:52.667Z,15.37
2018-05-12T17:28:21.059Z,15.13
2018-05-12T17:30:49.473Z,15.53
2018-05-12T17:33:17.879Z,13.37
2018-05-12T17:35:46.345Z,14.23
2018-05-12T17:38:14.780Z,15.27
2018-05-12T17:40:43.308Z,15.50
2018-05-12T17:43:12.713Z,15.00
2018-05-12T17:45:51.278Z,14.57
2018-05-12T17:48:20.072Z,14.17
2018-05-12T17:50:49.617Z,16.23
2018-05-12T17:53:18.185Z,20.00
2018-05-12T17:55:47.025Z,14.50
2018-05-12T17:58:20.260Z,15.20
2018-05-12T18:00:52.716Z,15.03
2018-05-12T18:03:22.539Z,15.13
2018-05-12T18:05:58.077Z,14.43
2018-05-12T18:08:26.717Z,12.90
2018-05-12T18:10:56.054Z,15.43
2018-05-12T18:13:27.711Z,13.90
2018-05-12T18:15:56.564Z,14.00
2018-05-12T18:18:26.346Z,15.30
2018-05-12T18:20:54.867Z,14.60
2018-05-12T18:23:23.948Z,15.83
2018-05-12T18:25:53.428Z,14.10
2018-05-12T18:28:21.773Z,13.30
2018-05-12T18:30:50.892Z,12.80
2018-05-12T18:33:19.360Z,13.60
2018-05-12T18:35:49.557Z,12.77
2018-05-12T18:38:17.915Z,14.20
2018-05-12T18:40:46.246Z,14.20
2018-05-12T18:43:14.622Z,12.90
2018-05-12T18:45:42.959Z,14.93
2018-05-12T18:48:11.296Z,14.60
2018-05-12T18:50:39.634Z,12.87
2018-05-12T18:53:08.054Z,13.53
2018-05-12T18:55:39.034Z,15.03
2018-05-12T18:58:15.667Z,15.13
2018-05-12T19:00:56.150Z,13.93
2018-05-12T19:03:28.723Z,14.80
2018-05-12T19:05:59.357Z,14.03
2018-05-12T19:08:28.404Z,13.30
2018-05-12T19:10:56.772Z,14.27
2018-05-12T19:13:25.128Z,14.03
2018-05-12T19:15:53.504Z,14.77
2018-05-12T19:18:21.826Z,14.73
2018-05-12T19:20:50.239Z,15.03
2018-05-12T19:23:18.639Z,15.63
2018-05-12T19:25:47.457Z,16.20
2018-05-12T19:28:16.126Z,16.17
2018-05-12T19:30:44.560Z,13.87
2018-05-12T19:33:12.887Z,14.10
2018-05-12T19:35:41.214Z,16.97
2018-05-12T19:38:09.651Z,16.37
2018-05-12T19:40:38.101Z,16.23
2018-05-12T19:43:07.054Z,16.53
2018-05-12T19:45:36.473Z,17.23
2018-05-12T19:48:05.605Z,17.30
2018-05-12T19:50:34.918Z,18.33
2018-05-12T19:53:06.392Z,16.37
2018-05-12T19:55:38.847Z,16.57
2018-05-12T19:58:08.510Z,18.47
2018-05-12T20:00:37.873Z,18.53
2018-05-12T20:03:06.288Z,16.90
2018-05-12T20:05:36.815Z,17.90
2018-05-12T20:08:05.214Z,18.13
2018-05-12T20:10:33.773Z,17.13
2018-05-12T20:13:03.396Z,21.03
2018-05-12T20:15:33.261Z,19.00
2018-05-12T20:18:02.258Z,21.23
2018-05-12T20:20:30.816Z,22.20
2018-05-12T20:22:59.828Z,22.53
2018-05-12T20:25:28.780Z,22.87
2018-05-12T20:28:04.486Z,22.67
2018-05-12T20:30:33.014Z,22.77
2018-05-12T20:33:02.492Z,23.47
2018-05-12T20:35:31.459Z,23.07
2018-05-12T20:38:00.786Z,23.40
2018-05-12T20:40:31.968Z,22.13
2018-05-12T20:43:03.101Z,22.03
2018-05-12T20:45:32.194Z,22.60
2018-05-12T20:48:01.076Z,24.50
2018-05-12T20:50:30.125Z,25.37
2018-05-12T20:52:59.634Z,24.67
2018-05-12T20:55:28.528Z,48.20
2018-05-12T20:57:57.051Z,141.00
2018-05-12T21:00:27.035Z,117.10
2018-05-12T21:02:56.298Z,71.60
2018-05-12T21:05:25.354Z,36.27
2018-05-12T21:07:54.143Z,30.33
2018-05-12T21:10:24.559Z,25.87
2018-05-12T21:12:52.971Z,27.13
2018-05-12T21:15:21.605Z,25.77
2018-05-12T21:17:53.140Z,27.10
2018-05-12T21:20:23.574Z,26.10
2018-05-12T21:22:54.380Z,27.23
2018-05-12T21:25:22.901Z,26.83
2018-05-12T21:27:52.643Z,27.87
2018-05-12T21:30:21.224Z,26.40
2018-05-12T21:32:49.629Z,26.50
2018-05-12T21:35:19.378Z,25.77
2018-05-12T21:37:48.270Z,28.33
2018-05-12T21:40:17.002Z,26.47
2018-05-12T21:42:46.460Z,27.23
2018-05-12T21:45:14.862Z,27.90
2018-05-12T21:47:43.605Z,29.10
2018-05-12T21:50:12.012Z,32.53
2018-05-12T21:52:40.616Z,28.20
2018-05-12T21:55:09.404Z,28.90
2018-05-12T21:57:39.594Z,30.70
2018-05-12T22:00:09.185Z,28.10
2018-05-12T22:02:38.008Z,29.90
2018-05-12T22:05:06.746Z,29.27
2018-05-12T22:07:35.685Z,30.63
2018-05-12T22:10:04.755Z,31.37
2018-05-12T22:12:33.532Z,29.43
2018-05-12T22:15:02.115Z,29.93
2018-05-12T22:17:30.486Z,30.70
2018-05-12T22:20:00.618Z,31.50
2018-05-12T22:22:33.825Z,30.33
2018-05-12T22:25:06.611Z,28.77
2018-05-12T22:27:35.476Z,32.07
2018-05-12T22:30:04.003Z,32.83
2018-05-12T22:32:33.137Z,31.37
2018-05-12T22:35:02.660Z,31.07
2018-05-12T22:37:31.446Z,30.87
2018-05-12T22:40:01.413Z,31.83
2018-05-12T22:42:30.348Z,33.30
2018-05-12T22:44:58.737Z,32.67
2018-05-12T22:47:27.137Z,31.23
2018-05-12T22:49:55.665Z,35.73
2018-05-12T22:52:25.302Z,34.33
2018-05-12T22:54:53.669Z,33.83
2018-05-12T22:57:22.087Z,32.40
2018-05-12T22:59:50.551Z,32.13
2018-05-12T23:02:19.044Z,32.20
2018-05-12T23:04:49.068Z,34.50
2018-05-12T23:07:17.476Z,34.40
2018-05-12T23:09:45.946Z,33.50
2018-05-12T23:12:14.619Z,36.63
2018-05-12T23:14:43.816Z,35.60
2018-05-12T23:17:18.654Z,36.20
2018-05-12T23:19:47.496Z,35.97
2018-05-12T23:22:15.920Z,34.70
2018-05-12T23:24:44.470Z,35.63
2018-05-12T23:27:13.403Z,36.77
2018-05-12T23:29:42.926Z,37.30
2018-05-12T23:32:11.394Z,38.50
2018-05-12T23:34:39.785Z,38.70
2018-05-12T23:37:08.191Z,37.80
2018-05-12T23:39:37.068Z,38.90
2018-05-12T23:42:05.515Z,39.47
2018-05-12T23:44:35.073Z,37.57
2018-05-12T23:47:04.275Z,36.77
2018-05-12T23:49:33.599Z,38.17
2018-05-12T23:52:03.710Z,36.73
2018-05-12T23:54:34.051Z,38.03
2018-05-12T23:57:02.766Z,37.47
2018-05-12T23:59:31.678Z,38.97
